Time;durP1;ratioP1;P1;durP2;ratioP2;P2;SDS_P1;SDS_P2;PMS_P1;PMS_P2;Temp;Humidity;BMP_temperature;BMP_pressure;BME280_temperature;BME280_humidity;BME280_pressure;Samples;Min_cycle;Max_cycle;Signal;HPM_P1;HPM_P2
2021/07/29 00:00:17;;;;;;;3.20;3.00;;;19.70;99.90;;;;;;2106381;28;20378;-69
2021/07/29 00:01:18;;;;;;;4.38;2.88;;;19.70;99.90;;;;;;2106429;28;20027;-69
2021/07/29 00:02:18;;;;;;;4.65;3.13;;;19.70;99.90;;;;;;2108407;28;20135;-69
2021/07/29 00:03:19;;;;;;;2.70;2.50;;;19.70;99.90;;;;;;2114820;28;20028;-69
2021/07/29 00:04:19;;;;;;;2.70;2.50;;;19.70;99.90;;;;;;2114794;28;20104;-69
2021/07/29 00:05:20;;;;;;;6.50;2.72;;;19.70;99.90;;;;;;2114903;28;20095;-69
2021/07/29 00:06:20;;;;;;;2.90;2.55;;;19.60;99.90;;;;;;2114622;28;20032;-69
2021/07/29 00:07:21;;;;;;;5.43;2.80;;;19.60;99.90;;;;;;2115092;28;20031;-69
2021/07/29 00:08:22;;;;;;;5.43;2.90;;;19.60;99.90;;;;;;2114851;28;20073;-69
2021/07/29 00:09:22;;;;;;;6.03;2.70;;;19.60;99.90;;;;;;2114974;28;20027;-69
2021/07/29 00:10:24;;;;;;;3.45;2.60;;;19.60;99.90;;;;;;2114605;28;20467;-69
2021/07/29 00:11:25;;;;;;;3.05;2.78;;;19.60;99.90;;;;;;2112089;28;20058;-69
2021/07/29 00:12:26;;;;;;;7.60;3.45;;;19.60;99.90;;;;;;2106220;28;20031;-69
2021/07/29 00:13:26;;;;;;;4.00;3.03;;;19.60;99.90;;;;;;2106206;28;20035;-69
2021/07/29 00:14:28;;;;;;;5.53;2.78;;;19.50;99.90;;;;;;2106021;28;20390;-69
2021/07/29 00:15:29;;;;;;;5.88;3.00;;;19.60;99.90;;;;;;2106507;28;20466;-69
2021/07/29 00:16:41;;;;;;;3.88;3.20;;;19.50;99.90;;;;;;2106357;28;20423;-69
2021/07/29 00:19:04;;;;;;;4.45;2.60;;;19.50;99.90;;;;;;2106297;28;20024;-69
2021/07/29 00:20:06;;;;;;;4.45;2.95;;;19.50;99.90;;;;;;2106544;28;20027;-69
2021/07/29 00:21:07;;;;;;;3.53;2.70;;;19.50;99.90;;;;;;2106532;28;20028;-70
2021/07/29 00:22:07;;;;;;;4.43;2.70;;;19.40;99.90;;;;;;2110367;28;20035;-69
2021/07/29 00:23:08;;;;;;;3.90;3.03;;;19.50;99.90;;;;;;2114176;28;20019;-69
2021/07/29 00:24:10;;;;;;;2.55;2.30;;;19.40;99.90;;;;;;2114274;28;20020;-69
2021/07/29 00:25:12;;;;;;;2.95;2.60;;;19.40;99.90;;;;;;2113722;28;20019;-69
2021/07/29 00:26:13;;;;;;;4.78;2.85;;;19.40;99.90;;;;;;2114733;28;20155;-69
2021/07/29 00:27:13;;;;;;;2.85;2.53;;;19.40;99.90;;;;;;2114681;28;20069;-69
2021/07/29 00:28:14;;;;;;;3.95;2.80;;;19.40;99.90;;;;;;2114974;28;20042;-70
2021/07/29 00:29:14;;;;;;;3.53;2.92;;;19.40;99.90;;;;;;2114708;28;20030;-69
2021/07/29 00:30:17;;;;;;;4.10;3.13;;;19.40;99.90;;;;;;2101378;28;20459;-69
2021/07/29 00:31:17;;;;;;;3.40;3.03;;;19.40;99.90;;;;;;2106076;28;20415;-69
2021/07/29 00:32:18;;;;;;;3.58;2.97;;;19.40;99.90;;;;;;2107388;28;20103;-69
2021/07/29 00:33:18;;;;;;;3.75;3.13;;;19.30;99.90;;;;;;2110780;28;20016;-70
2021/07/29 00:34:19;;;;;;;4.05;3.03;;;19.30;99.90;;;;;;2106472;28;20032;-69
2021/07/29 00:35:20;;;;;;;4.35;2.90;;;19.30;99.90;;;;;;2106144;28;20085;-69
2021/07/29 00:36:21;;;;;;;3.40;2.72;;;19.30;99.90;;;;;;2106520;28;20020;-69
2021/07/29 00:37:22;;;;;;;4.78;2.97;;;19.30;99.90;;;;;;2106080;28;20020;-69
2021/07/29 00:38:22;;;;;;;5.65;2.90;;;19.30;99.90;;;;;;2106063;28;20031;-69
2021/07/29 00:39:23;;;;;;;3.97;3.15;;;19.30;99.90;;;;;;2106346;28;20046;-69
2021/07/29 00:40:23;;;;;;;4.88;2.90;;;19.30;99.90;;;;;;2106341;28;20023;-69
2021/07/29 00:41:24;;;;;;;3.92;2.90;;;19.30;99.90;;;;;;2105849;28;20032;-69
2021/07/29 00:42:24;;;;;;;3.35;3.05;;;19.20;99.90;;;;;;2106075;28;20527;-69
2021/07/29 00:43:25;;;;;;;4.05;3.33;;;19.20;99.90;;;;;;2112737;28;20124;-69
2021/07/29 00:44:25;;;;;;;3.83;2.70;;;19.20;99.90;;;;;;2114568;28;20483;-69
2021/07/29 00:45:27;;;;;;;3.88;2.70;;;19.20;99.90;;;;;;2114680;28;20024;-69
2021/07/29 00:46:30;;;;;;;4.32;3.47;;;19.20;99.90;;;;;;2114433;28;20486;-69
2021/07/29 00:47:32;;;;;;;4.47;3.03;;;19.20;99.90;;;;;;2111337;28;20375;-69
2021/07/29 00:48:32;;;;;;;5.45;3.40;;;19.20;99.90;;;;;;2106126;28;20379;-69
2021/07/29 00:49:34;;;;;;;3.38;2.70;;;19.10;99.90;;;;;;2106113;28;20024;-69
2021/07/29 00:50:34;;;;;;;3.65;2.63;;;19.10;99.90;;;;;;2106039;28;20023;-69
2021/07/29 00:51:35;;;;;;;4.50;3.05;;;19.10;99.90;;;;;;2105769;28;20091;-69
2021/07/29 00:52:36;;;;;;;3.22;2.92;;;19.10;99.90;;;;;;2105564;28;20020;-69
2021/07/29 00:53:37;;;;;;;2.95;2.65;;;19.10;99.90;;;;;;2106110;28;20020;-69
2021/07/29 00:54:38;;;;;;;5.07;3.25;;;19.10;99.90;;;;;;2111350;28;20063;-69
2021/07/29 00:55:39;;;;;;;3.10;2.47;;;19.10;99.90;;;;;;2114650;28;20028;-69
2021/07/29 00:56:44;;;;;;;4.93;2.38;;;19.00;99.90;;;;;;2106259;28;20046;-69
2021/07/29 00:57:44;;;;;;;3.20;2.45;;;19.00;99.90;;;;;;2106244;28;20115;-69
2021/07/29 00:58:45;;;;;;;4.30;2.97;;;19.00;99.90;;;;;;2105995;28;20030;-69
2021/07/29 00:59:46;;;;;;;2.85;2.55;;;19.00;99.90;;;;;;2106233;28;20031;-69
2021/07/29 01:00:46;;;;;;;4.05;3.25;;;19.00;99.90;;;;;;2106657;28;20110;-69
2021/07/29 01:01:47;;;;;;;2.42;2.22;;;19.00;99.90;;;;;;2105711;28;20144;-69
2021/07/29 01:02:48;;;;;;;4.80;3.15;;;19.00;99.90;;;;;;2110987;28;20035;-69
2021/07/29 01:03:49;;;;;;;5.72;3.00;;;19.00;99.90;;;;;;2114650;28;20123;-69
2021/07/29 01:04:49;;;;;;;4.10;3.13;;;19.00;99.90;;;;;;2108894;28;20144;-69
2021/07/29 01:05:50;;;;;;;5.88;2.90;;;19.00;99.90;;;;;;2106256;28;20066;-69
2021/07/29 01:06:50;;;;;;;3.40;2.25;;;19.00;99.90;;;;;;2106076;28;20143;-69
2021/07/29 01:07:51;;;;;;;3.03;2.58;;;19.00;99.90;;;;;;2105736;28;20035;-69
2021/07/29 01:09:02;;;;;;;3.83;2.72;;;19.00;99.90;;;;;;2105871;28;20068;-69
2021/07/29 01:10:03;;;;;;;4.15;3.10;;;19.00;99.90;;;;;;2105974;28;20024;-69
2021/07/29 01:11:04;;;;;;;2.47;2.28;;;19.00;99.90;;;;;;2106031;28;20032;-69
2021/07/29 01:12:05;;;;;;;3.45;2.70;;;19.00;99.90;;;;;;2105944;28;20024;-69
2021/07/29 01:13:05;;;;;;;4.15;3.03;;;19.00;99.90;;;;;;2105443;28;20065;-69
2021/07/29 01:14:06;;;;;;;5.03;3.05;;;18.90;99.90;;;;;;2105884;28;20020;-69
2021/07/29 01:15:08;;;;;;;3.70;2.90;;;19.00;99.90;;;;;;2105970;28;20032;-69
2021/07/29 01:16:08;;;;;;;3.63;3.00;;;18.90;99.90;;;;;;2106168;28;20016;-70
2021/07/29 01:17:09;;;;;;;3.17;2.70;;;19.00;99.90;;;;;;2105874;28;20022;-69
2021/07/29 01:18:10;;;;;;;3.83;2.70;;;18.90;99.90;;;;;;2105823;28;20020;-69
2021/07/29 01:19:11;;;;;;;2.53;2.33;;;18.90;99.90;;;;;;2105628;28;20344;-69
2021/07/29 01:20:20;;;;;;;4.13;2.55;;;18.90;99.90;;;;;;2107783;28;20036;-69
2021/07/29 01:21:20;;;;;;;4.10;2.80;;;18.90;99.90;;;;;;2114185;28;20058;-69
2021/07/29 01:22:21;;;;;;;3.22;2.78;;;18.90;99.90;;;;;;2114381;28;20038;-69
2021/07/29 01:23:21;;;;;;;3.10;2.80;;;18.90;99.90;;;;;;2113808;28;20486;-69
2021/07/29 01:24:25;;;;;;;2.45;2.25;;;18.90;99.90;;;;;;2114559;28;20051;-69
2021/07/29 01:25:26;;;;;;;5.13;3.25;;;18.90;99.90;;;;;;2113909;28;20076;-69
2021/07/29 01:26:27;;;;;;;5.25;3.00;;;18.80;99.90;;;;;;2114336;28;20080;-70
2021/07/29 01:27:31;;;;;;;7.63;3.30;;;18.80;99.90;;;;;;2113440;28;20260;-69
2021/07/29 01:28:31;;;;;;;5.13;3.08;;;18.80;99.90;;;;;;2110334;28;20099;-69
2021/07/29 01:29:32;;;;;;;3.25;2.70;;;18.80;99.90;;;;;;2105900;28;20031;-69
2021/07/29 01:30:32;;;;;;;3.20;2.90;;;18.80;99.90;;;;;;2112923;28;20383;-69
2021/07/29 01:31:33;;;;;;;3.67;2.97;;;18.80;99.90;;;;;;2114067;28;20090;-69
2021/07/29 01:32:34;;;;;;;5.88;3.08;;;18.80;99.90;;;;;;2114076;28;20055;-69
2021/07/29 01:33:38;;;;;;;3.20;2.55;;;18.80;99.90;;;;;;2103291;28;20021;-69
2021/07/29 01:34:39;;;;;;;2.60;2.40;;;18.70;99.90;;;;;;2098653;28;20036;-69
2021/07/29 01:35:39;;;;;;;3.20;2.78;;;18.70;99.90;;;;;;2105695;28;20041;-69
2021/07/29 01:36:40;;;;;;;3.03;2.30;;;18.70;99.90;;;;;;2105476;28;20031;-69
2021/07/29 01:37:41;;;;;;;3.00;2.50;;;18.70;99.90;;;;;;2105619;28;20058;-69
2021/07/29 01:38:42;;;;;;;3.00;2.70;;;18.70;99.90;;;;;;2104169;28;20016;-69
2021/07/29 01:39:43;;;;;;;2.80;2.50;;;18.70;99.90;;;;;;2107334;28;20099;-69
2021/07/29 01:40:43;;;;;;;5.35;2.53;;;18.70;99.90;;;;;;2110218;28;20019;-69
2021/07/29 01:41:44;;;;;;;2.95;2.30;;;18.70;99.90;;;;;;2113120;28;20491;-69
2021/07/29 01:42:44;;;;;;;3.30;2.67;;;18.70;99.90;;;;;;2113288;28;20059;-69
2021/07/29 01:43:45;;;;;;;3.17;2.40;;;18.70;99.90;;;;;;2105979;28;20031;-69
2021/07/29 01:44:45;;;;;;;3.05;2.58;;;18.70;99.90;;;;;;2105591;28;20032;-69
2021/07/29 01:45:47;;;;;;;3.35;2.80;;;18.70;99.90;;;;;;2106099;28;20024;-69
2021/07/29 01:46:47;;;;;;;5.20;2.00;;;18.70;99.90;;;;;;2105741;28;20043;-70
2021/07/29 01:47:48;;;;;;;4.65;2.65;;;18.60;99.90;;;;;;2100994;28;20030;-69
2021/07/29 01:48:48;;;;;;;4.15;2.30;;;18.60;99.90;;;;;;2105749;28;20459;-69
2021/07/29 01:49:49;;;;;;;4.80;2.53;;;18.60;99.90;;;;;;2105352;28;20055;-69
2021/07/29 01:50:49;;;;;;;3.53;2.70;;;18.60;99.90;;;;;;2105609;28;20048;-69
2021/07/29 01:51:50;;;;;;;4.63;2.88;;;18.60;99.90;;;;;;2105509;28;20024;-69
2021/07/29 01:52:50;;;;;;;4.28;2.53;;;18.60;99.90;;;;;;2109214;28;20019;-69
2021/07/29 01:53:51;;;;;;;5.78;2.42;;;18.60;99.90;;;;;;2114007;28;20020;-69
2021/07/29 01:54:52;;;;;;;5.88;2.55;;;18.60;99.90;;;;;;2114155;28;20050;-69
2021/07/29 01:55:52;;;;;;;5.70;2.25;;;18.50;99.90;;;;;;2112582;28;20031;-69
2021/07/29 01:56:53;;;;;;;4.78;2.58;;;18.50;99.90;;;;;;2106019;28;20482;-69
2021/07/29 01:57:53;;;;;;;3.33;2.40;;;18.50;99.90;;;;;;2105710;28;20020;-69
2021/07/29 01:58:54;;;;;;;2.85;2.53;;;18.50;99.90;;;;;;2105612;28;20150;-69
2021/07/29 01:59:54;;;;;;;6.20;2.72;;;18.50;99.90;;;;;;2113939;28;20020;-69
2021/07/29 02:00:55;;;;;;;3.65;2.53;;;18.50;99.90;;;;;;2113717;28;20441;-69
2021/07/29 02:01:55;;;;;;;3.72;2.17;;;18.50;99.90;;;;;;2114040;28;20028;-69
2021/07/29 02:02:56;;;;;;;4.75;2.75;;;18.40;99.90;;;;;;2113573;28;20390;-69
2021/07/29 02:03:56;;;;;;;3.92;2.30;;;18.50;99.90;;;;;;2114238;28;20102;-69
2021/07/29 02:04:57;;;;;;;4.68;2.47;;;18.50;99.90;;;;;;2114117;28;20035;-69
2021/07/29 02:06:02;;;;;;;4.60;2.53;;;18.50;99.90;;;;;;2114115;28;20469;-69
2021/07/29 02:07:03;;;;;;;3.53;2.30;;;18.40;99.90;;;;;;2114040;28;20106;-69
2021/07/29 02:08:04;;;;;;;3.42;2.38;;;18.50;99.90;;;;;;2114328;28;20031;-69
2021/07/29 02:09:05;;;;;;;3.35;2.40;;;18.50;99.90;;;;;;2113790;28;20102;-69
2021/07/29 02:10:06;;;;;;;3.47;2.53;;;18.50;99.90;;;;;;2114312;28;20098;-69
2021/07/29 02:11:06;;;;;;;4.72;2.25;;;18.50;99.90;;;;;;2108002;28;20423;-69
2021/07/29 02:12:07;;;;;;;2.67;2.25;;;18.40;99.90;;;;;;2105060;28;20059;-69
2021/07/29 02:13:08;;;;;;;3.53;2.05;;;18.40;99.90;;;;;;2104797;28;20020;-69
2021/07/29 02:14:08;;;;;;;5.88;2.15;;;18.40;99.90;;;;;;2105739;28;20475;-69
2021/07/29 02:15:09;;;;;;;3.92;2.17;;;18.40;99.90;;;;;;2105617;28;20024;-69
2021/07/29 02:16:13;;;;;;;4.88;2.40;;;18.40;99.90;;;;;;2105879;28;20035;-69
2021/07/29 02:17:14;;;;;;;4.72;2.30;;;18.40;99.90;;;;;;2104842;28;20144;-69
2021/07/29 02:18:14;;;;;;;4.93;2.08;;;18.40;99.90;;;;;;2105303;28;20058;-69
2021/07/29 02:19:15;;;;;;;3.10;2.33;;;18.40;99.90;;;;;;2105537;28;20441;-69
2021/07/29 02:20:16;;;;;;;2.40;2.10;;;18.40;99.90;;;;;;2105637;28;20024;-69
2021/07/29 02:21:16;;;;;;;2.40;2.13;;;18.40;99.90;;;;;;2105676;28;20471;-69
2021/07/29 02:22:17;;;;;;;3.50;2.42;;;18.40;99.90;;;;;;2105303;28;20024;-69
2021/07/29 02:23:18;;;;;;;3.22;2.10;;;18.40;99.90;;;;;;2105414;28;20070;-69
2021/07/29 02:24:18;;;;;;;4.10;2.53;;;18.40;99.90;;;;;;2105549;28;20528;-69
2021/07/29 02:25:19;;;;;;;5.15;2.38;;;18.40;99.90;;;;;;2108820;28;20067;-69
2021/07/29 02:26:20;;;;;;;3.70;2.38;;;18.40;99.90;;;;;;2114176;28;20412;-69
2021/07/29 02:27:23;;;;;;;2.47;1.92;;;18.40;99.90;;;;;;2113971;28;20062;-69
2021/07/29 02:28:24;;;;;;;2.17;1.92;;;18.40;99.90;;;;;;2114268;28;20088;-69
2021/07/29 02:29:24;;;;;;;4.30;2.40;;;18.40;99.90;;;;;;2113794;28;20127;-69
2021/07/29 02:30:25;;;;;;;2.65;2.25;;;18.30;99.90;;;;;;2114218;28;20030;-69
2021/07/29 02:31:26;;;;;;;3.42;2.35;;;18.40;99.90;;;;;;2113860;28;20047;-69
2021/07/29 02:32:27;;;;;;;4.57;2.50;;;18.40;99.90;;;;;;2114098;28;20447;-69
2021/07/29 02:33:27;;;;;;;6.03;2.90;;;18.30;99.90;;;;;;2103532;28;20099;-70
2021/07/29 02:34:28;;;;;;;3.95;2.42;;;18.30;99.90;;;;;;2096891;28;20024;-69
2021/07/29 02:35:28;;;;;;;3.83;2.17;;;18.30;99.90;;;;;;2105077;28;20081;-69
2021/07/29 02:36:29;;;;;;;3.13;2.15;;;18.30;99.90;;;;;;2105841;28;20043;-69
2021/07/29 02:37:29;;;;;;;6.40;2.85;;;18.30;99.90;;;;;;2105675;28;20016;-69
2021/07/29 02:38:31;;;;;;;3.90;2.38;;;18.30;99.90;;;;;;2105485;28;20097;-69
2021/07/29 02:39:31;;;;;;;2.20;1.98;;;18.20;99.90;;;;;;2106430;28;20074;-69
2021/07/29 02:40:32;;;;;;;3.67;2.35;;;18.20;99.90;;;;;;2113982;28;20038;-69
2021/07/29 02:41:34;;;;;;;7.57;2.53;;;18.20;99.90;;;;;;2114081;28;20480;-69
2021/07/29 02:42:34;;;;;;;5.00;2.45;;;18.20;99.90;;;;;;2113684;28;20372;-69
2021/07/29 02:43:35;;;;;;;2.28;2.03;;;18.20;99.90;;;;;;2114007;28;20016;-69
2021/07/29 02:44:36;;;;;;;6.18;2.60;;;18.20;99.90;;;;;;2113775;28;20085;-69
2021/07/29 02:45:36;;;;;;;4.45;2.70;;;18.20;99.90;;;;;;2114210;28;20046;-69
2021/07/29 02:46:37;;;;;;;5.22;2.42;;;18.20;99.90;;;;;;2113129;28;20027;-69
2021/07/29 02:47:37;;;;;;;3.65;2.53;;;18.10;99.90;;;;;;2113474;28;20063;-69
2021/07/29 02:48:38;;;;;;;5.07;2.33;;;18.10;99.90;;;;;;2111302;28;20024;-69
2021/07/29 02:49:38;;;;;;;4.90;2.60;;;18.10;99.90;;;;;;2107785;28;20352;-69
2021/07/29 02:50:39;;;;;;;3.45;2.15;;;18.10;99.90;;;;;;2106855;28;20016;-69
2021/07/29 02:51:39;;;;;;;5.07;2.13;;;18.10;99.90;;;;;;2106966;28;20024;-69
2021/07/29 02:52:41;;;;;;;2.60;2.13;;;18.10;99.90;;;;;;2106671;28;20105;-69
2021/07/29 02:53:42;;;;;;;6.45;2.45;;;18.10;99.90;;;;;;2107128;28;20024;-69
2021/07/29 02:54:44;;;;;;;5.75;2.70;;;18.10;99.90;;;;;;2107006;28;20107;-69
2021/07/29 02:55:44;;;;;;;2.88;2.03;;;18.10;99.90;;;;;;2107047;28;20519;-69
2021/07/29 02:56:45;;;;;;;4.05;2.65;;;18.10;99.90;;;;;;2107156;28;20083;-69
2021/07/29 02:57:45;;;;;;;4.15;2.30;;;18.00;99.90;;;;;;2106961;28;20023;-69
2021/07/29 02:58:47;;;;;;;4.82;2.50;;;18.00;99.90;;;;;;2107132;28;20027;-69
2021/07/29 02:59:48;;;;;;;2.90;2.28;;;18.00;99.90;;;;;;2107222;28;20467;-69
2021/07/29 03:00:48;;;;;;;9.13;2.55;;;18.00;99.90;;;;;;2106970;28;20394;-69
2021/07/29 03:01:49;;;;;;;5.40;2.40;;;18.10;99.90;;;;;;2106953;28;20106;-69
2021/07/29 03:02:49;;;;;;;3.53;2.20;;;18.00;99.90;;;;;;2106264;28;20039;-69
2021/07/29 03:03:50;;;;;;;5.70;2.15;;;18.00;99.90;;;;;;2108434;28;20579;-69
2021/07/29 03:04:50;;;;;;;4.50;2.85;;;18.00;99.90;;;;;;2115436;28;20072;-69
2021/07/29 03:05:51;;;;;;;5.78;2.40;;;18.00;99.90;;;;;;2114443;28;20030;-69
2021/07/29 03:06:53;;;;;;;3.28;2.13;;;18.00;99.90;;;;;;2114524;28;20042;-69
2021/07/29 03:07:53;;;;;;;4.95;2.58;;;18.00;99.90;;;;;;2115630;27;20034;-69
2021/07/29 03:08:54;;;;;;;3.92;2.20;;;18.00;99.90;;;;;;2115339;28;20035;-69
2021/07/29 03:09:54;;;;;;;6.70;2.50;;;17.90;99.90;;;;;;2115632;28;20024;-69
2021/07/29 03:10:58;;;;;;;3.28;2.47;;;18.00;99.90;;;;;;2108918;28;20375;-69
2021/07/29 03:11:59;;;;;;;8.40;2.78;;;17.90;99.90;;;;;;2106960;28;20012;-69
2021/07/29 03:13:01;;;;;;;5.13;2.67;;;18.00;99.90;;;;;;2114250;28;20049;-69
2021/07/29 03:14:02;;;;;;;7.05;2.58;;;17.90;99.90;;;;;;2114784;28;20027;-68
2021/07/29 03:15:03;;;;;;;3.28;2.58;;;17.90;99.90;;;;;;2106685;28;20047;-69
2021/07/29 03:16:04;;;;;;;4.35;2.50;;;17.90;99.90;;;;;;2107113;28;20385;-69
2021/07/29 03:17:04;;;;;;;6.18;2.83;;;17.90;99.90;;;;;;2106731;28;20478;-69
2021/07/29 03:18:05;;;;;;;4.82;2.00;;;17.90;99.90;;;;;;2107187;28;20376;-69
2021/07/29 03:19:06;;;;;;;4.63;2.60;;;17.90;99.90;;;;;;2113339;28;20027;-69
2021/07/29 03:20:06;;;;;;;4.35;2.42;;;17.90;99.90;;;;;;2115404;28;20012;-69
2021/07/29 03:21:08;;;;;;;4.75;2.53;;;17.90;99.90;;;;;;2115429;28;20483;-69
2021/07/29 03:22:09;;;;;;;3.25;2.10;;;17.90;99.90;;;;;;2115039;28;20072;-69
2021/07/29 03:23:10;;;;;;;4.03;2.40;;;17.90;99.90;;;;;;2115150;28;20019;-69
2021/07/29 03:24:10;;;;;;;3.90;2.63;;;17.90;99.90;;;;;;2115198;28;20022;-69
2021/07/29 03:25:11;;;;;;;3.90;2.70;;;17.80;99.90;;;;;;2115267;28;20028;-69
2021/07/29 03:26:12;;;;;;;4.28;2.65;;;17.80;99.90;;;;;;2115063;28;20356;-69
2021/07/29 03:27:12;;;;;;;5.60;2.20;;;17.80;99.90;;;;;;2115439;28;20038;-69
2021/07/29 03:28:13;;;;;;;4.03;2.92;;;17.80;99.90;;;;;;2115336;28;20047;-69
2021/07/29 03:29:14;;;;;;;4.88;2.65;;;17.80;99.90;;;;;;2115345;28;20085;-69
2021/07/29 03:30:15;;;;;;;2.65;2.42;;;17.80;99.90;;;;;;2115043;28;20577;-68
2021/07/29 03:31:15;;;;;;;5.93;2.92;;;17.80;99.90;;;;;;2110811;28;20525;-69
2021/07/29 03:32:16;;;;;;;7.32;2.60;;;17.80;99.90;;;;;;2106473;28;20423;-69
2021/07/29 03:33:16;;;;;;;6.95;2.80;;;17.80;99.90;;;;;;2106573;28;20020;-69
2021/07/29 03:34:18;;;;;;;4.57;2.70;;;17.80;99.90;;;;;;2106643;28;20024;-69
2021/07/29 03:35:18;;;;;;;5.93;2.85;;;17.80;99.90;;;;;;2106946;28;20019;-69
2021/07/29 03:36:19;;;;;;;7.82;2.92;;;17.80;99.90;;;;;;2106674;28;20107;-69
2021/07/29 03:37:19;;;;;;;3.47;2.38;;;17.80;99.90;;;;;;2106835;28;20031;-69
2021/07/29 03:38:20;;;;;;;5.03;2.50;;;17.80;99.90;;;;;;2106467;28;20027;-69
2021/07/29 03:39:21;;;;;;;4.90;2.72;;;17.80;99.90;;;;;;2106760;28;20452;-69
2021/07/29 03:40:21;;;;;;;4.95;2.80;;;17.70;99.90;;;;;;2106691;28;20035;-69
2021/07/29 03:41:22;;;;;;;6.63;2.50;;;17.70;99.90;;;;;;2106494;28;20028;-69
2021/07/29 03:42:23;;;;;;;6.65;2.60;;;17.70;99.90;;;;;;2106671;28;20040;-69
2021/07/29 03:43:24;;;;;;;5.45;2.60;;;17.70;99.90;;;;;;2106506;28;20032;-69
2021/07/29 03:44:24;;;;;;;5.25;2.80;;;17.70;99.90;;;;;;2106275;28;20024;-69
2021/07/29 03:45:25;;;;;;;5.07;2.65;;;17.70;99.90;;;;;;2106363;28;20024;-69
2021/07/29 03:46:25;;;;;;;7.60;3.20;;;17.70;99.90;;;;;;2110085;28;20038;-69
2021/07/29 03:47:27;;;;;;;5.03;2.33;;;17.70;99.90;;;;;;2111654;28;20088;-69
2021/07/29 03:48:27;;;;;;;4.55;2.60;;;17.70;99.90;;;;;;2107946;28;20077;-69
2021/07/29 03:49:28;;;;;;;5.20;2.78;;;17.70;99.90;;;;;;2110666;28;20541;-69
2021/07/29 03:50:29;;;;;;;5.68;2.88;;;17.70;99.90;;;;;;2106355;28;20036;-69
2021/07/29 03:51:30;;;;;;;5.72;3.00;;;17.70;99.90;;;;;;2106297;28;20031;-69
2021/07/29 03:52:30;;;;;;;5.82;3.03;;;17.60;99.90;;;;;;2105817;28;20055;-69
2021/07/29 03:53:31;;;;;;;2.83;2.45;;;17.60;99.90;;;;;;2097395;28;20020;-69
2021/07/29 03:54:33;;;;;;;6.32;3.20;;;17.60;99.90;;;;;;2105832;28;20423;-69
2021/07/29 03:55:33;;;;;;;7.05;2.53;;;17.60;99.90;;;;;;2106745;28;20379;-69
2021/07/29 03:56:34;;;;;;;5.55;2.92;;;17.60;99.90;;;;;;2106213;28;20020;-69
2021/07/29 03:57:34;;;;;;;6.15;3.00;;;17.60;99.90;;;;;;2106744;28;20024;-69
2021/07/29 03:58:36;;;;;;;4.78;2.72;;;17.60;99.90;;;;;;2110064;28;20433;-69
2021/07/29 03:59:37;;;;;;;5.03;2.95;;;17.60;99.90;;;;;;2110073;28;20020;-69
2021/07/29 04:00:37;;;;;;;6.55;3.00;;;17.60;99.90;;;;;;2106986;28;20024;-69
2021/07/29 04:01:38;;;;;;;6.80;3.15;;;17.50;99.90;;;;;;2114729;28;20129;-69
2021/07/29 04:02:39;;;;;;;4.88;2.45;;;17.60;99.90;;;;;;2113522;28;20493;-69
2021/07/29 04:03:40;;;;;;;6.18;2.60;;;17.60;99.90;;;;;;2114277;28;20482;-69
2021/07/29 04:04:40;;;;;;;4.82;2.80;;;17.60;99.90;;;;;;2114929;28;20420;-69
2021/07/29 04:05:41;;;;;;;5.10;2.95;;;17.60;99.90;;;;;;2114897;28;20072;-69
2021/07/29 04:06:41;;;;;;;5.05;3.13;;;17.60;99.90;;;;;;2111844;28;20028;-69
2021/07/29 04:07:42;;;;;;;7.22;2.70;;;17.60;99.90;;;;;;2113290;28;20438;-69
2021/07/29 04:08:42;;;;;;;8.00;3.10;;;17.60;99.90;;;;;;2110220;28;20016;-69
2021/07/29 04:09:43;;;;;;;5.25;2.65;;;17.60;99.90;;;;;;2114181;28;20026;-69
2021/07/29 04:10:44;;;;;;;6.72;3.15;;;17.60;99.90;;;;;;2115019;28;20019;-69
2021/07/29 04:11:44;;;;;;;7.72;3.15;;;17.60;99.90;;;;;;2114657;28;20047;-69
2021/07/29 04:12:45;;;;;;;5.53;3.03;;;17.60;99.90;;;;;;2114541;28;20072;-69
2021/07/29 04:13:45;;;;;;;3.72;2.72;;;17.60;99.90;;;;;;2114610;28;20122;-69
2021/07/29 04:14:46;;;;;;;7.80;2.65;;;17.60;99.90;;;;;;2109707;28;20028;-69
2021/07/29 04:15:46;;;;;;;4.18;2.67;;;17.60;99.90;;;;;;2106420;28;20028;-69
2021/07/29 04:16:47;;;;;;;6.75;2.65;;;17.60;99.90;;;;;;2106681;28;20101;-69
2021/07/29 04:17:47;;;;;;;4.22;2.90;;;17.60;99.90;;;;;;2106253;28;20037;-69
2021/07/29 04:18:48;;;;;;;5.03;2.85;;;17.50;99.90;;;;;;2106556;28;20628;-69
2021/07/29 04:19:48;;;;;;;3.85;2.38;;;17.60;99.90;;;;;;2106119;28;20106;-69
2021/07/29 04:20:49;;;;;;;5.85;2.72;;;17.60;99.90;;;;;;2106464;28;20021;-69
2021/07/29 04:21:50;;;;;;;6.10;3.47;;;17.60;99.90;;;;;;2105849;28;20047;-69
2021/07/29 04:22:50;;;;;;;4.45;2.83;;;17.60;99.90;;;;;;2103046;28;20035;-69
2021/07/29 04:23:51;;;;;;;3.88;3.00;;;17.60;99.90;;;;;;2103327;28;20065;-69
2021/07/29 04:24:55;;;;;;;6.15;3.22;;;17.60;99.90;;;;;;2112103;28;20429;-69
2021/07/29 04:25:56;;;;;;;7.70;2.70;;;17.60;99.90;;;;;;2112810;28;20425;-68
2021/07/29 04:26:57;;;;;;;6.45;2.83;;;17.60;99.90;;;;;;2106906;28;20023;-69
2021/07/29 04:27:58;;;;;;;7.15;3.40;;;17.60;99.90;;;;;;2112795;28;20028;-69
2021/07/29 04:28:59;;;;;;;5.35;2.80;;;17.60;99.90;;;;;;2106756;28;20059;-69
2021/07/29 04:29:59;;;;;;;4.38;2.90;;;17.60;99.90;;;;;;2111684;28;20024;-69
2021/07/29 04:31:00;;;;;;;10.20;3.38;;;17.60;99.90;;;;;;2105972;28;20053;-69
2021/07/29 04:32:02;;;;;;;5.53;2.50;;;17.60;99.90;;;;;;2106110;28;20020;-69
2021/07/29 04:33:02;;;;;;;9.50;3.50;;;17.60;99.90;;;;;;2105935;28;20047;-69
2021/07/29 04:34:03;;;;;;;4.90;2.80;;;17.60;99.90;;;;;;2106553;28;20024;-69
2021/07/29 04:35:04;;;;;;;7.00;3.13;;;17.60;99.90;;;;;;2106269;28;20016;-69
2021/07/29 04:36:06;;;;;;;6.88;3.10;;;17.60;99.90;;;;;;2106353;28;20017;-68
2021/07/29 04:37:08;;;;;;;6.22;2.92;;;17.70;99.90;;;;;;2106379;28;20047;-69
2021/07/29 04:38:09;;;;;;;9.32;3.35;;;17.70;99.90;;;;;;2101964;28;20102;-69
2021/07/29 04:39:09;;;;;;;6.03;3.30;;;17.70;99.90;;;;;;2100824;28;20486;-69
2021/07/29 04:40:11;;;;;;;5.18;2.97;;;17.70;99.90;;;;;;2100432;28;20078;-69
2021/07/29 04:41:11;;;;;;;6.57;3.00;;;17.70;99.90;;;;;;2098864;28;20526;-69
2021/07/29 04:42:12;;;;;;;7.30;3.15;;;17.70;99.90;;;;;;2102256;28;20444;-70
2021/07/29 04:43:13;;;;;;;5.35;3.03;;;17.70;99.90;;;;;;2101826;28;20020;-69
2021/07/29 04:44:14;;;;;;;5.20;2.90;;;17.70;99.90;;;;;;2102142;28;20020;-69
2021/07/29 04:45:15;;;;;;;4.32;2.95;;;17.70;99.90;;;;;;2099589;28;20369;-69
2021/07/29 04:46:15;;;;;;;6.47;3.00;;;17.80;99.90;;;;;;2098862;28;20032;-69
2021/07/29 04:47:17;;;;;;;7.60;3.10;;;17.90;99.90;;;;;;2098002;28;20082;-69
2021/07/29 04:48:17;;;;;;;5.18;2.67;;;17.90;99.90;;;;;;2102423;28;20047;-69
2021/07/29 04:49:20;;;;;;;5.50;3.10;;;17.90;99.90;;;;;;2100579;28;20111;-69
2021/07/29 04:50:21;;;;;;;9.82;3.08;;;18.00;99.90;;;;;;2099570;28;20028;-69
2021/07/29 04:51:22;;;;;;;6.32;2.88;;;18.00;99.90;;;;;;2099660;28;20021;-69
2021/07/29 04:52:23;;;;;;;6.28;3.15;;;18.00;99.90;;;;;;2098666;28;20013;-69
2021/07/29 04:53:23;;;;;;;4.28;2.42;;;18.00;99.90;;;;;;2100546;28;20056;-69
2021/07/29 04:54:24;;;;;;;6.35;3.20;;;18.00;99.90;;;;;;2105987;28;20016;-69
2021/07/29 04:55:24;;;;;;;8.30;3.05;;;18.00;99.90;;;;;;2105675;28;20086;-69
2021/07/29 04:56:25;;;;;;;9.55;3.13;;;18.00;99.90;;;;;;2104178;28;20092;-69
2021/07/29 04:57:25;;;;;;;9.40;3.30;;;18.00;99.90;;;;;;2106708;28;20023;-69
2021/07/29 04:58:26;;;;;;;7.70;3.35;;;18.00;99.90;;;;;;2104267;28;20095;-69
2021/07/29 04:59:26;;;;;;;6.53;3.15;;;18.00;99.90;;;;;;2102536;28;20024;-69
2021/07/29 05:00:29;;;;;;;5.78;3.25;;;18.00;99.90;;;;;;2098635;28;20855;-69
2021/07/29 05:01:30;;;;;;;5.72;3.13;;;18.00;99.90;;;;;;2099643;28;20072;-69
2021/07/29 05:02:31;;;;;;;6.18;3.30;;;18.00;99.90;;;;;;2101109;28;20209;-69
2021/07/29 05:03:31;;;;;;;5.57;2.97;;;18.00;99.90;;;;;;2104722;28;20063;-69
2021/07/29 05:04:33;;;;;;;6.82;3.22;;;18.00;99.90;;;;;;2103023;28;20016;-69
2021/07/29 05:05:33;;;;;;;6.25;2.80;;;18.00;99.90;;;;;;2103833;28;20024;-69
2021/07/29 05:06:35;;;;;;;5.32;2.67;;;18.00;99.90;;;;;;2105787;28;20055;-69
2021/07/29 05:07:35;;;;;;;5.45;2.67;;;18.00;99.90;;;;;;2105515;28;20028;-69
2021/07/29 05:08:36;;;;;;;14.40;3.35;;;18.10;99.90;;;;;;2103274;28;20520;-69
2021/07/29 05:09:37;;;;;;;5.40;3.13;;;18.10;99.90;;;;;;2103925;28;20477;-69
2021/07/29 05:10:37;;;;;;;7.72;3.38;;;18.10;99.90;;;;;;2101913;28;20064;-69
2021/07/29 05:11:38;;;;;;;4.10;2.45;;;18.20;99.90;;;;;;2105642;28;20012;-69
2021/07/29 05:12:39;;;;;;;7.45;2.70;;;18.20;99.90;;;;;;2105043;28;20079;-69
2021/07/29 05:13:39;;;;;;;7.90;3.10;;;18.30;99.90;;;;;;2102677;28;20039;-69
2021/07/29 05:14:40;;;;;;;7.07;2.80;;;18.40;99.90;;;;;;2100085;28;20048;-69
2021/07/29 05:15:41;;;;;;;11.13;2.60;;;18.40;99.90;;;;;;2103333;28;20032;-69
2021/07/29 05:16:41;;;;;;;7.82;2.53;;;18.50;99.90;;;;;;2104602;28;20040;-69
2021/07/29 05:17:42;;;;;;;10.05;3.20;;;18.50;99.90;;;;;;2105195;28;20024;-69